LIMW/AOT METAR and TAF weather

Enter ICAO airport designator
Station Type Date Time Source
LIMW METAR 2024/05/28 11:50 UTC NOAA

LIMW 281150Z 24009KT 220V280 CAVOK 24/05 Q1016


Station Type Date Time Source
LIMW Decoded METAR 2024/05/28 11:50 UTC NOAA

Station name not available
May 28, 2024 - 07:50 AM EDT / 2024.05.28 1150 UTC
Wind: from the WSW (240 degrees) at 10 MPH (9 KT) (direction variable):0
Visibility: greater than 7 mile(s):0
Temperature: 75 F (24 C)
Dew Point: 41 F (5 C)
Relative Humidity: 29%
Pressure (altimeter): 30.00 in. Hg (1016 hPa)
ob: LIMW 281150Z 24009KT 220V280 CAVOK 24/05 Q1016
cycle: 12

Station Type Date Time Source
LIMW TAF UTC NOAA

Error!

Example: see airport list